Latest Weather Observations for Mackay Airport

IDQ60801

Issued at 8:05 am EST Saturday 1 November 2014 (issued every 30 minutes, with the page automatically refreshed every 10 minutes)

About weather observations | Map of weather stations | Latest weather observations for QLD | Other Formats
Station Details ID: 033045 Name: MACKAY AERO Lat: -21.17 Lon: 149.18 Height: 4.7 m
Data from the previous 72 hours. | See also: Recent months at Mackay Airport
Date/Time
EST
Temp
°C
App
Temp
°C
Dew
Point
Rel
Hum
%
Delta-T
°C
Wind Press
QNH
hPa
Press
MSL
hPa
Rain
since 9 am
mm
Dir
 
Spd
km/h
Gust
km/h
Spd
kts
Gust
kts
01/08:00am 25.9 25.7 17.5 59 5.3 N 15 20 8 11 1016.2 1016.2 0.0
01/07:30am 24.3 26.2 18.9 72 3.4 NW 7 17 4 9 1015.9 1015.9 0.0
01/07:00am 21.1 23.1 19.2 89 1.2 NNE 7 7 4 4 1015.5 1015.5 0.0
01/06:30am 19.8 21.9 19.0 95 0.5 NNE 6 7 3 4 1015.3 1015.3 0.0
01/06:00am 18.3 19.3 17.7 96 0.4 NNE 9 9 5 5 1015.1 1015.1 0.0
01/05:30am 18.0 19.4 17.4 96 0.4 NNE 6 7 3 4 1014.7 1014.7 0.0
01/05:00am 18.2 19.5 17.6 96 0.4 NNE 7 7 4 4 1014.5 1014.5 0.0
01/04:30am 17.7 19.0 17.1 96 0.4 NNE 6 7 3 4 1014.2 1014.2 0.0
01/04:27am 18.2 20.1 17.6 96 0.4 NNE 4 7 2 4 1014.2 1014.2 0.0
01/04:04am 17.9 20.3 17.1 95 0.5 CALM 0 0 0 0 1014.0 1014.0 0.0
01/04:00am 17.7 20.0 16.7 94 0.6 CALM 0 2 0 1 1014.0 1014.0 0.0
01/03:30am 17.8 18.8 16.8 94 0.6 NNE 7 9 4 5 1013.9 1013.9 0.0
01/03:00am 18.3 19.6 17.5 95 0.5 NNE 7 9 4 5 1013.7 1013.7 0.0
01/02:30am 18.3 19.4 17.1 93 0.7 NNE 7 11 4 6 1013.7 1013.7 0.0
01/02:00am 18.8 20.3 17.6 93 0.7 NNE 6 9 3 5 1013.8 1013.8 0.0
01/01:30am 18.8 21.4 17.6 93 0.7 CALM 0 0 0 0 1014.2 1014.2 0.0
01/01:00am 19.3 20.8 18.1 93 0.7 NNE 7 7 4 4 1014.4 1014.4 0.0
01/12:30am 19.8 21.5 18.6 93 0.7 NNE 7 9 4 5 1014.7 1014.7 0.0
01/12:00am 19.7 20.7 17.7 88 1.2 NNE 9 11 5 6 1015.1 1015.1 0.0
 
Date/Time
EST
Temp
°C
App
Temp
°C
Dew
Point
Rel
Hum
%
Delta-T
°C
Wind Press
QNH
hPa
Press
MSL
hPa
Rain
since 9 am
mm
Dir
 
Spd
km/h
Gust
km/h
Spd
kts
Gust
kts
31/11:30pm 21.8 24.0 19.2 85 1.6 NNE 6 7 3 4 1015.2 1015.2 0.0
31/11:00pm 22.8 24.1 19.4 81 2.2 NNE 11 15 6 8 1015.4 1015.4 0.0
31/10:30pm 23.3 24.9 19.9 81 2.2 NE 11 15 6 8 1015.6 1015.6 0.0
31/10:00pm 22.7 24.3 19.1 80 2.3 NNE 9 11 5 6 1015.7 1015.7 0.0
31/09:30pm 23.3 24.9 19.2 78 2.6 NNE 9 15 5 8 1015.8 1015.8 0.0
31/09:00pm 23.8 24.8 19.5 77 2.8 NE 13 17 7 9 1015.4 1015.4 0.0
31/08:30pm 24.0 24.9 19.3 75 3.0 NE 13 19 7 10 1015.1 1015.1 0.0
31/08:00pm 24.2 24.5 19.7 76 2.9 ENE 17 19 9 10 1014.9 1014.9 0.0
31/07:30pm 24.3 24.9 19.4 74 3.1 NE 15 17 8 9 1014.9 1014.9 0.0
31/07:00pm 24.5 24.9 19.1 72 3.4 NE 15 19 8 10 1014.7 1014.7 0.0
31/06:30pm 24.7 25.4 18.9 70 3.7 NE 13 19 7 10 1014.5 1014.5 0.0
31/06:00pm 25.0 25.3 18.7 68 4.0 NE 15 19 8 10 1014.2 1014.2 0.0
31/05:30pm 25.7 25.9 19.3 67 4.1 ENE 17 22 9 12 1014.0 1014.0 0.0
31/05:00pm 26.1 26.5 19.0 65 4.5 ENE 15 20 8 11 1013.6 1013.6 0.0
31/04:30pm 26.5 26.4 19.6 66 4.5 E 19 26 10 14 1013.3 1013.3 0.0
31/04:00pm 26.5 26.4 19.9 67 4.3 E 20 26 11 14 1013.2 1013.2 0.0
31/03:30pm 27.0 26.9 19.9 65 4.6 ENE 20 28 11 15 1013.3 1013.3 0.0
31/03:00pm 27.6 27.3 20.4 65 4.7 ENE 22 28 12 15 1013.5 1013.5 0.0
31/02:30pm 26.8 25.9 19.9 66 4.5 ENE 24 32 13 17 1013.7 1013.7 0.0
31/02:00pm 27.7 27.5 20.5 65 4.7 ENE 22 30 12 16 1013.8 1013.8 0.0
31/01:30pm 28.3 27.7 20.6 63 5.1 ENE 24 33 13 18 1013.8 1013.8 0.0
31/01:00pm 28.5 27.5 20.5 62 5.3 E 26 33 14 18 1014.1 1014.1 0.0
31/12:30pm 28.4 27.2 19.3 57 5.9 ENE 24 32 13 17 1014.8 1014.8 0.0
31/12:00pm 28.6 27.5 19.5 58 5.9 ENE 24 32 13 17 1015.1 1015.1 0.0
31/11:30am 26.9 25.8 19.5 64 4.8 ENE 24 30 13 16 1015.3 1015.3 0.0
31/11:00am 27.4 26.2 19.2 61 5.3 ENE 24 32 13 17 1015.4 1015.4 0.0
31/10:30am 28.6 28.6 20.1 60 5.6 ENE 20 30 11 16 1015.7 1015.7 0.0
31/10:00am 27.7 26.9 19.2 60 5.5 ENE 22 32 12 17 1015.8 1015.8 0.0
31/09:30am 27.5 28.7 19.8 63 5.0 N 13 20 7 11 1016.0 1016.0 0.0
31/09:00am 27.3 27.0 18.3 58 5.7 NNE 17 24 9 13 1016.0 1016.0 0.0
31/08:30am 27.3 27.9 19.4 62 5.1 ENE 15 22 8 12 1015.9 1015.9 0.0
31/08:00am 25.8 27.8 19.9 70 3.8 NNE 9 13 5 7 1015.9 1015.9 0.0
31/07:30am 25.0 28.1 20.3 75 3.1 SE 4 9 2 5 1015.8 1015.8 0.0
31/07:00am 22.6 24.7 20.1 86 1.6 SSW 9 13 5 7 1015.6 1015.6 0.0
31/06:30am 20.8 22.2 19.6 93 0.8 SW 11 13 6 7 1015.3 1015.3 0.0
31/06:00am 20.0 21.7 19.3 96 0.4 SW 9 13 5 7 1014.9 1014.9 0.0
31/05:30am 18.4 19.8 17.8 96 0.4 SW 7 9 4 5 1014.3 1014.3 0.0
31/05:00am 18.5 19.5 17.7 95 0.5 S 9 11 5 6 1014.1 1014.1 0.0
31/04:30am 18.2 20.3 17.2 94 0.6 NNE 2 9 1 5 1014.0 1014.0 0.0
31/04:00am 19.2 22.2 18.4 95 0.5 CALM 0 0 0 0 1013.8 1013.8 0.0
31/03:30am 18.9 21.4 18.1 95 0.5 NNE 2 7 1 4 1013.8 1013.8 0.0
31/03:00am 18.9 20.0 17.9 94 0.6 NNE 9 11 5 6 1013.8 1013.8 0.0
31/02:30am 19.0 19.9 17.5 91 0.9 NNE 9 9 5 5 1014.0 1014.0 0.0
31/02:00am 20.3 22.7 18.8 91 0.9 NNE 4 6 2 3 1013.9 1013.9 0.0
31/01:30am 20.1 21.9 18.4 90 1.1 NNE 6 7 3 4 1014.1 1014.1 0.0
31/01:00am 21.1 22.7 19.2 89 1.2 NNE 9 11 5 6 1014.2 1014.2 0.0
31/12:30am 21.2 23.0 18.4 84 1.7 NNE 6 6 3 3 1014.9 1014.9 0.0
31/12:00am 22.0 24.1 19.4 85 1.7 NNE 7 7 4 4 1014.9 1014.9 0.0
 
Date/Time
EST
Temp
°C
App
Temp
°C
Dew
Point
Rel
Hum
%
Delta-T
°C
Wind Press
QNH
hPa
Press
MSL
hPa
Rain
since 9 am
mm
Dir
 
Spd
km/h
Gust
km/h
Spd
kts
Gust
kts
30/11:30pm 22.3 24.0 19.3 83 1.9 N 9 11 5 6 1015.0 1015.0 0.0
30/11:00pm 23.1 25.1 19.9 82 2.1 NNE 9 11 5 6 1015.2 1015.2 0.0
30/10:30pm 23.4 25.8 20.0 81 2.2 NNE 7 11 4 6 1015.3 1015.3 0.0
30/10:00pm 23.6 25.7 20.1 81 2.3 NNE 9 11 5 6 1015.3 1015.3 0.0
30/09:30pm 23.4 25.8 20.1 82 2.1 NNE 7 11 4 6 1015.1 1015.1 0.0
30/09:00pm 23.4 25.4 20.0 81 2.2 NNE 9 11 5 6 1014.9 1014.9 0.0
30/08:30pm 24.1 25.4 20.2 79 2.5 NNE 13 17 7 9 1014.6 1014.6 0.0
30/08:00pm 24.3 26.1 20.4 79 2.5 NNE 11 15 6 8 1014.6 1014.6 0.0
30/07:30pm 24.4 25.9 20.5 79 2.5 NNE 13 17 7 9 1014.6 1014.6 0.0
30/07:00pm 24.8 26.3 20.5 77 2.8 NE 13 17 7 9 1014.5 1014.5 0.0
30/06:30pm 24.8 26.0 20.7 78 2.7 NE 15 17 8 9 1014.0 1014.0 0.0
30/06:00pm 25.0 25.5 20.9 78 2.7 NE 19 22 10 12 1013.6 1013.6 0.0
30/05:30pm 25.3 25.6 20.5 75 3.1 NE 19 24 10 13 1013.5 1013.5 0.0
30/05:00pm 26.2 26.5 20.5 71 3.7 NE 19 24 10 13 1013.1 1013.1 0.0
30/04:30pm 26.4 25.5 19.8 67 4.3 ENE 24 30 13 16 1012.8 1012.8 0.0
30/04:00pm 26.8 26.5 20.4 68 4.2 ENE 22 28 12 15 1012.6 1012.6 0.0
30/03:30pm 26.8 27.3 20.9 70 3.9 NE 19 28 10 15 1012.6 1012.6 0.0
30/03:00pm 27.9 27.8 20.7 65 4.8 ENE 22 30 12 16 1012.6 1012.6 0.0
30/02:30pm 28.1 27.9 20.6 63 4.9 NE 22 33 12 18 1012.8 1012.8 0.0
30/02:00pm 28.7 27.8 19.9 59 5.8 NE 24 30 13 16 1012.9 1012.9 0.0
30/01:30pm 29.2 27.2 19.2 54 6.5 NE 28 32 15 17 1013.2 1013.2 0.0
30/01:00pm 29.2 27.6 18.3 51 7.0 NE 24 32 13 17 1013.4 1013.4 0.0
30/12:30pm 29.6 28.3 18.1 50 7.4 NE 22 30 12 16 1013.7 1013.7 0.0
30/12:00pm 29.8 27.6 17.9 48 7.6 NE 26 35 14 19 1014.2 1014.2 0.0
30/11:30am 29.5 27.6 17.7 49 7.5 NE 24 32 13 17 1014.4 1014.4 0.0
30/11:00am 29.0 28.1 18.1 51 7.0 N 20 30 11 16 1014.7 1014.7 0.0
30/10:30am 28.9 27.8 17.7 50 7.1 NNE 20 32 11 17 1014.9 1014.9 0.0
30/10:00am 28.8 28.4 18.9 55 6.4 N 19 26 10 14 1015.1 1015.1 0.0
30/09:30am 27.9 27.7 18.6 57 6.0 N 17 24 9 13 1014.9 1014.9 0.0
30/09:00am 28.1 26.9 19.3 58 5.7 N 24 28 13 15 1014.6 1014.6 0.0
30/08:30am 28.0 26.8 19.2 58 5.7 N 24 32 13 17 1014.5 1014.5 0.0
30/08:00am 27.0 27.3 20.3 66 4.4 N 19 22 10 12 1015.1 1015.1 0.0
30/07:30am 24.8 26.5 20.9 79 2.6 N 13 17 7 9 1015.3 1015.3 0.0
30/07:00am 23.4 25.2 20.3 83 2.0 N 11 13 6 7 1015.8 1015.8 0.0
30/06:30am 22.3 25.0 20.6 90 1.1 N 7 9 4 5 1015.8 1015.8 0.0
30/06:00am 20.8 22.4 20.0 95 0.5 N 11 13 6 7 1015.8 1015.8 0.0
30/05:30am 19.8 21.3 18.8 94 0.6 SW 9 11 5 6 1015.9 1015.9 0.0
30/05:00am 20.6 20.8 20.1 97 0.3 SSW 19 24 10 13 1016.5 1016.5 0.0
30/04:30am 18.9 19.7 18.2 96 0.4 WNW 11 15 6 8 1014.9 1014.9 0.0
30/04:00am 18.8 19.9 18.0 95 0.5 WNW 9 11 5 6 1014.0 1014.0 0.0
30/03:30am 19.7 21.5 18.7 94 0.6 WNW 7 9 4 5 1013.4 1013.4 0.0
30/03:23am 19.5 21.4 18.5 94 0.6 WNW 6 9 3 5 1013.4 1013.4 0.0
30/03:05am 20.4 22.8 19.7 96 0.4 WNW 6 7 3 4 1013.2 1013.2 0.0
30/03:00am 20.5 23.0 19.8 96 0.4 WNW 6 7 3 4 1013.2 1013.2 0.0
30/02:30am 20.3 22.4 19.3 94 0.6 WNW 7 7 4 4 1012.9 1012.9 0.0
30/02:00am 21.2 23.7 20.2 94 0.6 WNW 7 9 4 5 1012.6 1012.6 0.0
30/01:30am 21.6 24.4 20.8 95 0.5 NW 7 9 4 5 1012.7 1012.7 0.0
30/01:00am 20.9 22.7 19.6 92 0.8 NW 9 11 5 6 1013.0 1013.0 0.0
30/12:30am 21.7 23.9 20.3 92 0.9 NNW 9 11 5 6 1013.3 1013.3 0.0
30/12:00am 22.0 23.9 20.5 91 1.0 NNW 11 13 6 7 1013.5 1013.5 0.0
 
Date/Time
EST
Temp
°C
App
Temp
°C
Dew
Point
Rel
Hum
%
Delta-T
°C
Wind Press
QNH
hPa
Press
MSL
hPa
Rain
since 9 am
mm
Dir
 
Spd
km/h
Gust
km/h
Spd
kts
Gust
kts
29/11:30pm 22.6 24.4 21.1 91 1.0 N 13 15 7 8 1013.5 1013.5 0.0
29/11:13pm 22.6 24.9 20.7 89 1.2 NNW 9 15 5 8 1014.0 1014.0 0.0
29/11:00pm 23.0 24.8 21.1 89 1.2 NNW 13 15 7 8 1014.0 1014.0 0.0
29/10:56pm 23.0 24.8 21.1 89 1.2 NNW 13 15 7 8 1014.0 1014.0 0.0
29/10:30pm 23.5 25.1 21.4 88 1.4 N 15 19 8 10 1014.2 1014.2 0.0
29/10:00pm 23.5 25.0 21.2 87 1.5 N 15 19 8 10 1014.2 1014.2 0.0
29/09:30pm 23.7 25.2 21.2 86 1.6 N 15 19 8 10 1014.2 1014.2 0.0
29/09:00pm 23.7 25.2 21.2 86 1.6 N 15 22 8 12 1014.1 1014.1 0.0
29/08:30pm 24.0 25.1 21.3 85 1.8 N 17 20 9 11 1014.0 1014.0 0.0
29/08:00pm 24.2 25.1 21.5 85 1.8 N 19 26 10 14 1013.8 1013.8 0.0
29/07:30pm 24.2 25.2 21.1 83 2.0 N 17 24 9 13 1013.8 1013.8 0.0
29/07:00pm 24.4 25.0 21.1 82 2.2 N 19 24 10 13 1013.4 1013.4 0.0
29/06:30pm 24.6 24.9 20.7 79 2.6 N 20 28 11 15 1013.0 1013.0 0.0
29/06:00pm 25.1 25.0 20.8 77 2.8 N 22 28 12 15 1012.6 1012.6 0.0
29/05:30pm 25.8 25.7 20.8 74 3.3 N 22 28 12 15 1012.2 1012.2 0.0
29/05:00pm 26.6 26.1 20.7 70 3.9 N 24 30 13 16 1012.1 1012.1 0.0
29/04:30pm 27.3 26.3 20.4 66 4.5 N 26 33 14 18 1011.7 1011.7 0.0
29/04:00pm 27.9 26.4 20.2 63 5.1 N 28 37 15 20 1011.3 1011.3 0.0
29/03:30pm 28.0 25.8 20.3 63 5.1 N 32 39 17 21 1011.2 1011.2 0.0
29/03:00pm 28.9 27.3 20.1 59 5.8 N 28 37 15 20 1011.5 1011.5 0.0
29/02:30pm 29.1 27.3 20.3 59 5.8 NNE 30 35 16 19 1011.7 1011.7 0.0
29/02:00pm 29.3 28.0 19.9 57 6.2 N 26 33 14 18 1012.0 1012.0 0.0
29/01:30pm 29.7 28.2 20.3 57 6.2 NNE 28 35 15 19 1012.1 1012.1 0.0
29/01:00pm 29.3 27.6 19.9 57 6.2 N 28 37 15 20 1012.4 1012.4 0.0
29/12:30pm 29.7 28.3 19.7 55 6.5 N 26 35 14 19 1012.7 1012.7 0.0
29/12:00pm 30.1 28.7 18.8 50 7.3 N 24 32 13 17 1013.0 1013.0 0.0
29/11:30am 30.0 29.5 20.0 55 6.6 N 22 30 12 16 1013.3 1013.3 0.0
29/11:00am 30.6 29.4 19.3 51 7.4 N 24 32 13 17 1013.6 1013.6 0.0
29/10:30am 30.2 29.5 19.6 53 6.9 N 22 30 12 16 1014.1 1014.1 0.0
29/10:00am 29.2 28.2 18.0 51 7.1 N 20 26 11 14 1014.5 1014.5 0.0
29/09:30am 28.9 28.3 18.9 54 6.5 N 20 24 11 13 1014.7 1014.7 0.0
29/09:00am 27.8 28.1 19.6 61 5.3 N 17 24 9 13 1014.8 1014.8 0.0
29/08:30am 27.0 28.4 19.6 64 4.8 N 11 20 6 11 1014.9 1014.9 0.0

Other Formats:

Comma delimited format used in spreadsheet applications
http://www.bom.gov.au/fwo/IDQ60801/IDQ60801.95367.axf

JavaScript Object Notation format (JSON) in row-major order
http://www.bom.gov.au/fwo/IDQ60801/IDQ60801.95367.json